sensor_id;sensor_type;location;lat;lon;timestamp;P1;durP1;ratioP1;P2;durP2;ratioP2
76892;SDS011;65854;51.466;7.260;2023-02-15T00:01:13;25.27;;;10.63;;
76892;SDS011;65854;51.466;7.260;2023-02-15T00:03:39;22.65;;;10.45;;
76892;SDS011;65854;51.466;7.260;2023-02-15T00:06:04;25.35;;;10.40;;
76892;SDS011;65854;51.466;7.260;2023-02-15T00:08:30;24.52;;;10.65;;
76892;SDS011;65854;51.466;7.260;2023-02-15T00:11:06;27.20;;;10.70;;
76892;SDS011;65854;51.466;7.260;2023-02-15T00:13:33;28.17;;;11.13;;
76892;SDS011;65854;51.466;7.260;2023-02-15T00:16:04;23.60;;;10.60;;
76892;SDS011;65854;51.466;7.260;2023-02-15T00:18:31;27.48;;;10.68;;
76892;SDS011;65854;51.466;7.260;2023-02-15T00:20:57;27.00;;;10.70;;
76892;SDS011;65854;51.466;7.260;2023-02-15T00:23:22;25.30;;;10.43;;
76892;SDS011;65854;51.466;7.260;2023-02-15T00:25:48;23.05;;;10.63;;
76892;SDS011;65854;51.466;7.260;2023-02-15T00:28:14;26.13;;;11.15;;
76892;SDS011;65854;51.466;7.260;2023-02-15T00:30:39;24.87;;;11.13;;
76892;SDS011;65854;51.466;7.260;2023-02-15T00:33:05;27.40;;;11.63;;
76892;SDS011;65854;51.466;7.260;2023-02-15T00:35:30;23.30;;;10.82;;
76892;SDS011;65854;51.466;7.260;2023-02-15T00:37:56;26.13;;;11.40;;
76892;SDS011;65854;51.466;7.260;2023-02-15T00:40:21;27.90;;;11.60;;
76892;SDS011;65854;51.466;7.260;2023-02-15T00:42:47;26.98;;;11.27;;
76892;SDS011;65854;51.466;7.260;2023-02-15T00:45:12;25.80;;;10.90;;
76892;SDS011;65854;51.466;7.260;2023-02-15T00:47:38;23.70;;;10.70;;
76892;SDS011;65854;51.466;7.260;2023-02-15T00:50:03;27.25;;;11.93;;
76892;SDS011;65854;51.466;7.260;2023-02-15T00:52:30;27.90;;;12.02;;
76892;SDS011;65854;51.466;7.260;2023-02-15T00:54:56;27.50;;;11.97;;
76892;SDS011;65854;51.466;7.260;2023-02-15T00:57:21;23.63;;;11.35;;
76892;SDS011;65854;51.466;7.260;2023-02-15T00:59:47;28.70;;;11.33;;
76892;SDS011;65854;51.466;7.260;2023-02-15T01:02:12;26.60;;;11.97;;
76892;SDS011;65854;51.466;7.260;2023-02-15T01:04:38;28.23;;;11.40;;
76892;SDS011;65854;51.466;7.260;2023-02-15T01:07:04;26.23;;;10.73;;
76892;SDS011;65854;51.466;7.260;2023-02-15T01:09:29;26.48;;;12.18;;
76892;SDS011;65854;51.466;7.260;2023-02-15T01:11:55;25.77;;;11.05;;
76892;SDS011;65854;51.466;7.260;2023-02-15T01:14:20;27.13;;;11.83;;
76892;SDS011;65854;51.466;7.260;2023-02-15T01:16:46;26.53;;;11.13;;
76892;SDS011;65854;51.466;7.260;2023-02-15T01:19:12;27.55;;;12.00;;
76892;SDS011;65854;51.466;7.260;2023-02-15T01:21:37;29.23;;;12.73;;
76892;SDS011;65854;51.466;7.260;2023-02-15T01:24:10;29.05;;;12.55;;
76892;SDS011;65854;51.466;7.260;2023-02-15T01:26:38;27.92;;;12.00;;
76892;SDS011;65854;51.466;7.260;2023-02-15T01:29:03;26.70;;;11.33;;
76892;SDS011;65854;51.466;7.260;2023-02-15T01:31:29;27.80;;;12.02;;
76892;SDS011;65854;51.466;7.260;2023-02-15T01:33:54;25.67;;;11.73;;
76892;SDS011;65854;51.466;7.260;2023-02-15T01:36:20;29.90;;;12.40;;
76892;SDS011;65854;51.466;7.260;2023-02-15T01:38:45;27.63;;;12.02;;
76892;SDS011;65854;51.466;7.260;2023-02-15T01:41:11;26.13;;;11.53;;
76892;SDS011;65854;51.466;7.260;2023-02-15T01:43:48;25.50;;;11.55;;
76892;SDS011;65854;51.466;7.260;2023-02-15T01:46:20;29.27;;;12.13;;
76892;SDS011;65854;51.466;7.260;2023-02-15T01:48:52;26.02;;;13.05;;
76892;SDS011;65854;51.466;7.260;2023-02-15T01:51:22;25.88;;;11.88;;
76892;SDS011;65854;51.466;7.260;2023-02-15T01:53:56;28.85;;;12.27;;
76892;SDS011;65854;51.466;7.260;2023-02-15T01:56:31;27.95;;;12.30;;
76892;SDS011;65854;51.466;7.260;2023-02-15T01:59:00;27.73;;;12.20;;
76892;SDS011;65854;51.466;7.260;2023-02-15T02:01:30;30.60;;;12.55;;
76892;SDS011;65854;51.466;7.260;2023-02-15T02:06:32;25.27;;;11.47;;
76892;SDS011;65854;51.466;7.260;2023-02-15T02:08:59;28.58;;;12.27;;
76892;SDS011;65854;51.466;7.260;2023-02-15T02:11:26;27.65;;;11.85;;
76892;SDS011;65854;51.466;7.260;2023-02-15T02:13:51;29.05;;;12.73;;
76892;SDS011;65854;51.466;7.260;2023-02-15T02:27:29;29.15;;;12.65;;
76892;SDS011;65854;51.466;7.260;2023-02-15T02:44:36;28.83;;;12.77;;
76892;SDS011;65854;51.466;7.260;2023-02-15T02:47:13;28.23;;;12.45;;
76892;SDS011;65854;51.466;7.260;2023-02-15T02:49:51;26.92;;;12.63;;
76892;SDS011;65854;51.466;7.260;2023-02-15T02:52:39;28.58;;;13.00;;
76892;SDS011;65854;51.466;7.260;2023-02-15T03:00:53;29.25;;;13.23;;
76892;SDS011;65854;51.466;7.260;2023-02-15T03:03:27;29.67;;;13.00;;
76892;SDS011;65854;51.466;7.260;2023-02-15T03:05:57;29.67;;;13.32;;
76892;SDS011;65854;51.466;7.260;2023-02-15T03:08:28;28.80;;;12.57;;
76892;SDS011;65854;51.466;7.260;2023-02-15T03:11:00;29.70;;;12.80;;
76892;SDS011;65854;51.466;7.260;2023-02-15T03:13:28;31.05;;;13.00;;
76892;SDS011;65854;51.466;7.260;2023-02-15T03:15:53;30.25;;;12.52;;
76892;SDS011;65854;51.466;7.260;2023-02-15T03:18:40;31.57;;;12.60;;
76892;SDS011;65854;51.466;7.260;2023-02-15T03:21:17;29.70;;;13.52;;
76892;SDS011;65854;51.466;7.260;2023-02-15T03:23:54;30.85;;;13.55;;
76892;SDS011;65854;51.466;7.260;2023-02-15T03:26:24;27.48;;;12.80;;
76892;SDS011;65854;51.466;7.260;2023-02-15T03:28:51;30.85;;;13.63;;
76892;SDS011;65854;51.466;7.260;2023-02-15T03:31:20;32.13;;;13.48;;
76892;SDS011;65854;51.466;7.260;2023-02-15T03:33:52;32.53;;;13.25;;
76892;SDS011;65854;51.466;7.260;2023-02-15T03:36:22;31.20;;;13.63;;
76892;SDS011;65854;51.466;7.260;2023-02-15T03:41:56;30.05;;;13.10;;
76892;SDS011;65854;51.466;7.260;2023-02-15T03:44:30;30.57;;;13.37;;
76892;SDS011;65854;51.466;7.260;2023-02-15T03:49:42;31.45;;;13.57;;
76892;SDS011;65854;51.466;7.260;2023-02-15T03:52:21;30.23;;;13.23;;
76892;SDS011;65854;51.466;7.260;2023-02-15T03:54:50;31.85;;;13.95;;
76892;SDS011;65854;51.466;7.260;2023-02-15T03:57:24;31.93;;;13.70;;
76892;SDS011;65854;51.466;7.260;2023-02-15T04:00:18;31.13;;;13.00;;
76892;SDS011;65854;51.466;7.260;2023-02-15T04:06:05;33.42;;;13.23;;
76892;SDS011;65854;51.466;7.260;2023-02-15T04:08:31;33.27;;;13.60;;
76892;SDS011;65854;51.466;7.260;2023-02-15T04:11:15;29.52;;;12.82;;
76892;SDS011;65854;51.466;7.260;2023-02-15T04:13:41;28.15;;;11.60;;
76892;SDS011;65854;51.466;7.260;2023-02-15T04:16:07;29.07;;;12.50;;
76892;SDS011;65854;51.466;7.260;2023-02-15T04:18:37;30.10;;;12.95;;
76892;SDS011;65854;51.466;7.260;2023-02-15T04:21:24;30.08;;;12.35;;
76892;SDS011;65854;51.466;7.260;2023-02-15T04:24:10;30.45;;;13.20;;
76892;SDS011;65854;51.466;7.260;2023-02-15T04:26:54;29.70;;;12.90;;
76892;SDS011;65854;51.466;7.260;2023-02-15T04:29:24;29.92;;;12.52;;
76892;SDS011;65854;51.466;7.260;2023-02-15T04:31:51;27.17;;;11.85;;
76892;SDS011;65854;51.466;7.260;2023-02-15T04:34:17;30.67;;;13.05;;
76892;SDS011;65854;51.466;7.260;2023-02-15T04:36:43;32.73;;;12.73;;
76892;SDS011;65854;51.466;7.260;2023-02-15T04:39:09;31.45;;;12.63;;
76892;SDS011;65854;51.466;7.260;2023-02-15T04:41:37;29.15;;;12.32;;
76892;SDS011;65854;51.466;7.260;2023-02-15T04:44:03;31.70;;;13.23;;
76892;SDS011;65854;51.466;7.260;2023-02-15T04:46:28;31.40;;;13.60;;
76892;SDS011;65854;51.466;7.260;2023-02-15T04:48:54;32.80;;;13.77;;
76892;SDS011;65854;51.466;7.260;2023-02-15T04:51:20;33.90;;;13.87;;
76892;SDS011;65854;51.466;7.260;2023-02-15T04:53:46;31.92;;;13.52;;
76892;SDS011;65854;51.466;7.260;2023-02-15T04:56:11;30.30;;;13.10;;
76892;SDS011;65854;51.466;7.260;2023-02-15T04:58:37;30.27;;;13.15;;
76892;SDS011;65854;51.466;7.260;2023-02-15T05:01:06;32.13;;;13.32;;
76892;SDS011;65854;51.466;7.260;2023-02-15T05:03:32;31.20;;;13.38;;
76892;SDS011;65854;51.466;7.260;2023-02-15T05:06:01;33.03;;;13.82;;
76892;SDS011;65854;51.466;7.260;2023-02-15T05:08:27;31.98;;;13.32;;
76892;SDS011;65854;51.466;7.260;2023-02-15T05:10:53;34.63;;;14.17;;
76892;SDS011;65854;51.466;7.260;2023-02-15T05:13:18;29.97;;;12.23;;
76892;SDS011;65854;51.466;7.260;2023-02-15T05:15:47;32.40;;;13.43;;
76892;SDS011;65854;51.466;7.260;2023-02-15T05:18:14;33.10;;;12.87;;
76892;SDS011;65854;51.466;7.260;2023-02-15T05:20:40;33.67;;;13.27;;
76892;SDS011;65854;51.466;7.260;2023-02-15T05:23:06;32.40;;;13.40;;
76892;SDS011;65854;51.466;7.260;2023-02-15T05:25:32;34.97;;;13.80;;
76892;SDS011;65854;51.466;7.260;2023-02-15T05:28:16;34.22;;;14.15;;
76892;SDS011;65854;51.466;7.260;2023-02-15T05:30:44;31.48;;;13.77;;
76892;SDS011;65854;51.466;7.260;2023-02-15T05:33:30;34.28;;;13.95;;
76892;SDS011;65854;51.466;7.260;2023-02-15T05:35:56;31.38;;;13.88;;
76892;SDS011;65854;51.466;7.260;2023-02-15T05:38:21;31.77;;;13.37;;
76892;SDS011;65854;51.466;7.260;2023-02-15T05:40:47;42.35;;;13.90;;
76892;SDS011;65854;51.466;7.260;2023-02-15T05:43:12;36.07;;;13.83;;
76892;SDS011;65854;51.466;7.260;2023-02-15T05:45:38;32.10;;;13.80;;
76892;SDS011;65854;51.466;7.260;2023-02-15T05:48:03;34.78;;;13.50;;
76892;SDS011;65854;51.466;7.260;2023-02-15T05:50:29;36.25;;;14.02;;
76892;SDS011;65854;51.466;7.260;2023-02-15T05:52:57;34.22;;;14.68;;
76892;SDS011;65854;51.466;7.260;2023-02-15T05:55:25;31.58;;;13.40;;
76892;SDS011;65854;51.466;7.260;2023-02-15T05:57:51;32.00;;;13.33;;
76892;SDS011;65854;51.466;7.260;2023-02-15T06:00:17;36.63;;;14.68;;
76892;SDS011;65854;51.466;7.260;2023-02-15T06:02:43;34.03;;;13.80;;
76892;SDS011;65854;51.466;7.260;2023-02-15T06:05:09;36.75;;;14.75;;
76892;SDS011;65854;51.466;7.260;2023-02-15T06:07:34;33.10;;;14.23;;
76892;SDS011;65854;51.466;7.260;2023-02-15T06:10:00;32.28;;;13.63;;
76892;SDS011;65854;51.466;7.260;2023-02-15T06:12:25;34.22;;;14.90;;
76892;SDS011;65854;51.466;7.260;2023-02-15T06:14:51;34.20;;;14.40;;
76892;SDS011;65854;51.466;7.260;2023-02-15T06:17:16;34.90;;;14.45;;
76892;SDS011;65854;51.466;7.260;2023-02-15T06:19:42;37.22;;;14.75;;
76892;SDS011;65854;51.466;7.260;2023-02-15T06:22:08;36.15;;;14.77;;
76892;SDS011;65854;51.466;7.260;2023-02-15T06:24:34;33.03;;;14.53;;
76892;SDS011;65854;51.466;7.260;2023-02-15T06:26:59;35.28;;;14.25;;
76892;SDS011;65854;51.466;7.260;2023-02-15T06:29:25;38.78;;;16.13;;
76892;SDS011;65854;51.466;7.260;2023-02-15T06:31:51;31.77;;;13.07;;
76892;SDS011;65854;51.466;7.260;2023-02-15T06:34:16;34.85;;;13.50;;
76892;SDS011;65854;51.466;7.260;2023-02-15T06:36:42;32.40;;;13.50;;
76892;SDS011;65854;51.466;7.260;2023-02-15T06:39:07;32.50;;;14.00;;
76892;SDS011;65854;51.466;7.260;2023-02-15T06:41:33;34.33;;;14.20;;
76892;SDS011;65854;51.466;7.260;2023-02-15T06:43:59;34.23;;;14.00;;
76892;SDS011;65854;51.466;7.260;2023-02-15T06:46:25;33.00;;;13.63;;
76892;SDS011;65854;51.466;7.260;2023-02-15T06:48:50;31.13;;;13.90;;
76892;SDS011;65854;51.466;7.260;2023-02-15T06:51:16;32.58;;;13.35;;
76892;SDS011;65854;51.466;7.260;2023-02-15T06:53:41;35.13;;;14.23;;
76892;SDS011;65854;51.466;7.260;2023-02-15T06:56:08;36.95;;;14.48;;
76892;SDS011;65854;51.466;7.260;2023-02-15T06:58:38;43.60;;;16.00;;
76892;SDS011;65854;51.466;7.260;2023-02-15T07:01:04;34.67;;;14.10;;
76892;SDS011;65854;51.466;7.260;2023-02-15T07:03:30;35.42;;;14.35;;
76892;SDS011;65854;51.466;7.260;2023-02-15T07:05:56;35.67;;;14.43;;
76892;SDS011;65854;51.466;7.260;2023-02-15T07:08:24;31.73;;;12.97;;
76892;SDS011;65854;51.466;7.260;2023-02-15T07:10:50;29.27;;;12.90;;
76892;SDS011;65854;51.466;7.260;2023-02-15T07:13:17;32.45;;;13.60;;
76892;SDS011;65854;51.466;7.260;2023-02-15T07:15:43;33.83;;;14.15;;
76892;SDS011;65854;51.466;7.260;2023-02-15T07:18:09;33.57;;;13.97;;
76892;SDS011;65854;51.466;7.260;2023-02-15T07:20:35;30.05;;;12.95;;
76892;SDS011;65854;51.466;7.260;2023-02-15T07:23:02;30.63;;;12.27;;
76892;SDS011;65854;51.466;7.260;2023-02-15T07:25:28;31.63;;;12.88;;
76892;SDS011;65854;51.466;7.260;2023-02-15T07:27:57;30.97;;;12.43;;
76892;SDS011;65854;51.466;7.260;2023-02-15T07:30:23;46.03;;;18.73;;
76892;SDS011;65854;51.466;7.260;2023-02-15T07:32:48;60.43;;;23.53;;
76892;SDS011;65854;51.466;7.260;2023-02-15T07:35:33;38.75;;;16.02;;
76892;SDS011;65854;51.466;7.260;2023-02-15T07:37:59;55.30;;;22.10;;
76892;SDS011;65854;51.466;7.260;2023-02-15T07:40:25;63.13;;;24.98;;
76892;SDS011;65854;51.466;7.260;2023-02-15T07:42:51;43.95;;;16.88;;
76892;SDS011;65854;51.466;7.260;2023-02-15T07:45:21;34.20;;;13.37;;
76892;SDS011;65854;51.466;7.260;2023-02-15T07:47:47;39.25;;;13.98;;
76892;SDS011;65854;51.466;7.260;2023-02-15T07:50:12;30.37;;;12.57;;
76892;SDS011;65854;51.466;7.260;2023-02-15T07:52:38;29.67;;;12.32;;
76892;SDS011;65854;51.466;7.260;2023-02-15T07:55:04;29.83;;;12.33;;
76892;SDS011;65854;51.466;7.260;2023-02-15T07:57:30;30.88;;;12.23;;
76892;SDS011;65854;51.466;7.260;2023-02-15T07:59:55;30.20;;;12.40;;
76892;SDS011;65854;51.466;7.260;2023-02-15T08:02:21;28.75;;;12.25;;
76892;SDS011;65854;51.466;7.260;2023-02-15T08:04:47;32.27;;;13.93;;
76892;SDS011;65854;51.466;7.260;2023-02-15T08:07:12;29.55;;;12.90;;
76892;SDS011;65854;51.466;7.260;2023-02-15T08:09:38;32.20;;;13.52;;
76892;SDS011;65854;51.466;7.260;2023-02-15T08:12:04;32.30;;;12.53;;
76892;SDS011;65854;51.466;7.260;2023-02-15T08:14:29;30.90;;;13.13;;
76892;SDS011;65854;51.466;7.260;2023-02-15T08:16:59;32.75;;;13.93;;
76892;SDS011;65854;51.466;7.260;2023-02-15T08:19:28;30.73;;;12.63;;
76892;SDS011;65854;51.466;7.260;2023-02-15T08:22:02;34.65;;;13.85;;
76892;SDS011;65854;51.466;7.260;2023-02-15T08:24:32;31.77;;;12.82;;
76892;SDS011;65854;51.466;7.260;2023-02-15T08:26:59;28.63;;;12.30;;
76892;SDS011;65854;51.466;7.260;2023-02-15T08:29:29;30.58;;;13.18;;
76892;SDS011;65854;51.466;7.260;2023-02-15T08:31:56;32.03;;;12.82;;
76892;SDS011;65854;51.466;7.260;2023-02-15T08:34:40;29.70;;;12.73;;
76892;SDS011;65854;51.466;7.260;2023-02-15T08:37:06;30.33;;;12.40;;
76892;SDS011;65854;51.466;7.260;2023-02-15T08:39:32;30.77;;;12.70;;
76892;SDS011;65854;51.466;7.260;2023-02-15T08:41:58;28.90;;;12.60;;
76892;SDS011;65854;51.466;7.260;2023-02-15T08:44:24;28.20;;;11.70;;
76892;SDS011;65854;51.466;7.260;2023-02-15T08:46:49;28.50;;;11.82;;
76892;SDS011;65854;51.466;7.260;2023-02-15T08:49:16;26.60;;;10.87;;
76892;SDS011;65854;51.466;7.260;2023-02-15T08:51:47;26.05;;;11.02;;
76892;SDS011;65854;51.466;7.260;2023-02-15T08:54:14;28.88;;;11.85;;
76892;SDS011;65854;51.466;7.260;2023-02-15T08:56:42;29.98;;;12.10;;
76892;SDS011;65854;51.466;7.260;2023-02-15T08:59:13;25.48;;;11.63;;
76892;SDS011;65854;51.466;7.260;2023-02-15T09:01:41;25.08;;;11.18;;
76892;SDS011;65854;51.466;7.260;2023-02-15T09:04:07;26.90;;;11.52;;
76892;SDS011;65854;51.466;7.260;2023-02-15T09:06:38;27.63;;;11.20;;
76892;SDS011;65854;51.466;7.260;2023-02-15T09:09:07;24.77;;;10.73;;
76892;SDS011;65854;51.466;7.260;2023-02-15T09:11:35;25.17;;;11.32;;
76892;SDS011;65854;51.466;7.260;2023-02-15T09:14:09;24.58;;;10.40;;
76892;SDS011;65854;51.466;7.260;2023-02-15T09:16:49;30.58;;;11.57;;
76892;SDS011;65854;51.466;7.260;2023-02-15T09:19:17;25.42;;;10.75;;
76892;SDS011;65854;51.466;7.260;2023-02-15T09:21:44;26.65;;;12.07;;
76892;SDS011;65854;51.466;7.260;2023-02-15T09:24:10;26.90;;;11.33;;
76892;SDS011;65854;51.466;7.260;2023-02-15T09:26:39;28.55;;;11.85;;
76892;SDS011;65854;51.466;7.260;2023-02-15T09:29:07;32.55;;;13.10;;
76892;SDS011;65854;51.466;7.260;2023-02-15T09:31:37;27.30;;;11.45;;
76892;SDS011;65854;51.466;7.260;2023-02-15T09:34:06;28.48;;;12.20;;
76892;SDS011;65854;51.466;7.260;2023-02-15T09:36:32;28.33;;;11.35;;
76892;SDS011;65854;51.466;7.260;2023-02-15T09:55:38;22.23;;;8.75;;
76892;SDS011;65854;51.466;7.260;2023-02-15T09:58:40;23.67;;;8.55;;
76892;SDS011;65854;51.466;7.260;2023-02-15T10:01:42;22.42;;;8.45;;
76892;SDS011;65854;51.466;7.260;2023-02-15T10:09:57;19.05;;;8.32;;
76892;SDS011;65854;51.466;7.260;2023-02-15T10:15:57;23.98;;;9.60;;
76892;SDS011;65854;51.466;7.260;2023-02-15T10:21:21;25.60;;;8.68;;
76892;SDS011;65854;51.466;7.260;2023-02-15T10:26:32;27.20;;;8.93;;
76892;SDS011;65854;51.466;7.260;2023-02-15T10:29:15;27.15;;;8.30;;
76892;SDS011;65854;51.466;7.260;2023-02-15T10:32:17;21.70;;;8.88;;
76892;SDS011;65854;51.466;7.260;2023-02-15T10:35:04;23.67;;;8.13;;
76892;SDS011;65854;51.466;7.260;2023-02-15T10:40:19;21.10;;;8.90;;
76892;SDS011;65854;51.466;7.260;2023-02-15T10:43:14;24.30;;;8.90;;
76892;SDS011;65854;51.466;7.260;2023-02-15T11:07:30;18.27;;;7.72;;
76892;SDS011;65854;51.466;7.260;2023-02-15T11:12:57;19.63;;;7.35;;
76892;SDS011;65854;51.466;7.260;2023-02-15T11:15:31;19.15;;;8.13;;
76892;SDS011;65854;51.466;7.260;2023-02-15T11:18:16;20.77;;;7.70;;
76892;SDS011;65854;51.466;7.260;2023-02-15T11:23:24;18.58;;;7.32;;
76892;SDS011;65854;51.466;7.260;2023-02-15T11:25:54;18.50;;;7.75;;
76892;SDS011;65854;51.466;7.260;2023-02-15T11:28:41;17.92;;;6.75;;
76892;SDS011;65854;51.466;7.260;2023-02-15T11:31:19;29.77;;;8.93;;
76892;SDS011;65854;51.466;7.260;2023-02-15T11:33:49;17.20;;;7.03;;
76892;SDS011;65854;51.466;7.260;2023-02-15T11:36:21;16.80;;;6.85;;
76892;SDS011;65854;51.466;7.260;2023-02-15T11:38:58;18.88;;;7.05;;
76892;SDS011;65854;51.466;7.260;2023-02-15T11:41:34;17.83;;;6.40;;
76892;SDS011;65854;51.466;7.260;2023-02-15T11:44:10;15.98;;;6.45;;
76892;SDS011;65854;51.466;7.260;2023-02-15T11:46:45;19.60;;;6.80;;
76892;SDS011;65854;51.466;7.260;2023-02-15T11:51:55;17.75;;;6.47;;
76892;SDS011;65854;51.466;7.260;2023-02-15T11:54:29;16.42;;;5.90;;
76892;SDS011;65854;51.466;7.260;2023-02-15T11:57:15;17.80;;;6.40;;
76892;SDS011;65854;51.466;7.260;2023-02-15T12:00:14;19.10;;;6.70;;
76892;SDS011;65854;51.466;7.260;2023-02-15T12:02:49;15.27;;;5.95;;
76892;SDS011;65854;51.466;7.260;2023-02-15T12:05:19;16.88;;;6.07;;
76892;SDS011;65854;51.466;7.260;2023-02-15T12:07:50;17.20;;;5.90;;
76892;SDS011;65854;51.466;7.260;2023-02-15T12:10:24;23.30;;;6.72;;
76892;SDS011;65854;51.466;7.260;2023-02-15T12:13:12;15.15;;;5.72;;
76892;SDS011;65854;51.466;7.260;2023-02-15T12:15:42;13.25;;;5.18;;
76892;SDS011;65854;51.466;7.260;2023-02-15T12:20:51;17.85;;;5.70;;
76892;SDS011;65854;51.466;7.260;2023-02-15T12:23:17;20.27;;;6.13;;
76892;SDS011;65854;51.466;7.260;2023-02-15T12:25:54;17.25;;;7.55;;
76892;SDS011;65854;51.466;7.260;2023-02-15T12:33:57;15.57;;;5.75;;
76892;SDS011;65854;51.466;7.260;2023-02-15T12:36:31;15.18;;;5.88;;
76892;SDS011;65854;51.466;7.260;2023-02-15T12:42:00;16.77;;;5.43;;
76892;SDS011;65854;51.466;7.260;2023-02-15T12:44:40;17.88;;;5.03;;
76892;SDS011;65854;51.466;7.260;2023-02-15T12:47:25;14.45;;;4.88;;
76892;SDS011;65854;51.466;7.260;2023-02-15T12:52:47;14.48;;;5.05;;
76892;SDS011;65854;51.466;7.260;2023-02-15T12:57:44;31.92;;;6.07;;
76892;SDS011;65854;51.466;7.260;2023-02-15T13:02:44;15.23;;;5.07;;
76892;SDS011;65854;51.466;7.260;2023-02-15T13:05:15;16.73;;;5.55;;
76892;SDS011;65854;51.466;7.260;2023-02-15T13:07:58;14.13;;;5.50;;
76892;SDS011;65854;51.466;7.260;2023-02-15T13:10:28;16.75;;;5.72;;
76892;SDS011;65854;51.466;7.260;2023-02-15T13:12:56;16.13;;;5.25;;
76892;SDS011;65854;51.466;7.260;2023-02-15T13:15:30;14.73;;;6.00;;
76892;SDS011;65854;51.466;7.260;2023-02-15T13:18:02;14.50;;;5.40;;
76892;SDS011;65854;51.466;7.260;2023-02-15T13:20:30;14.48;;;6.07;;
76892;SDS011;65854;51.466;7.260;2023-02-15T13:23:01;17.50;;;5.93;;
76892;SDS011;65854;51.466;7.260;2023-02-15T13:25:32;17.27;;;5.60;;
76892;SDS011;65854;51.466;7.260;2023-02-15T13:28:05;17.45;;;6.15;;
76892;SDS011;65854;51.466;7.260;2023-02-15T13:30:40;18.17;;;6.40;;
76892;SDS011;65854;51.466;7.260;2023-02-15T13:38:34;18.85;;;5.95;;
76892;SDS011;65854;51.466;7.260;2023-02-15T13:41:16;17.80;;;5.78;;
76892;SDS011;65854;51.466;7.260;2023-02-15T13:44:05;20.20;;;6.20;;
76892;SDS011;65854;51.466;7.260;2023-02-15T13:46:50;17.30;;;5.75;;
76892;SDS011;65854;51.466;7.260;2023-02-15T13:54:49;19.52;;;6.25;;
76892;SDS011;65854;51.466;7.260;2023-02-15T13:57:47;22.95;;;6.80;;
76892;SDS011;65854;51.466;7.260;2023-02-15T14:00:42;15.98;;;6.03;;
76892;SDS011;65854;51.466;7.260;2023-02-15T14:11:07;17.83;;;6.15;;
76892;SDS011;65854;51.466;7.260;2023-02-15T14:19:39;25.42;;;9.52;;
76892;SDS011;65854;51.466;7.260;2023-02-15T14:25:25;20.38;;;6.85;;
76892;SDS011;65854;51.466;7.260;2023-02-15T14:30:49;21.35;;;6.65;;
76892;SDS011;65854;51.466;7.260;2023-02-15T14:36:02;21.45;;;6.93;;
76892;SDS011;65854;51.466;7.260;2023-02-15T14:46:30;19.10;;;6.93;;
76892;SDS011;65854;51.466;7.260;2023-02-15T14:49:23;20.50;;;6.38;;
76892;SDS011;65854;51.466;7.260;2023-02-15T14:52:02;20.83;;;6.90;;
76892;SDS011;65854;51.466;7.260;2023-02-15T14:59:26;24.13;;;7.50;;
76892;SDS011;65854;51.466;7.260;2023-02-15T15:07:02;17.73;;;6.70;;
76892;SDS011;65854;51.466;7.260;2023-02-15T15:09:37;25.83;;;7.40;;
76892;SDS011;65854;51.466;7.260;2023-02-15T15:12:13;29.17;;;8.38;;
76892;SDS011;65854;51.466;7.260;2023-02-15T15:14:46;22.48;;;7.30;;
76892;SDS011;65854;51.466;7.260;2023-02-15T15:17:14;18.42;;;6.80;;
76892;SDS011;65854;51.466;7.260;2023-02-15T15:20:02;19.88;;;6.70;;
76892;SDS011;65854;51.466;7.260;2023-02-15T15:22:30;18.02;;;6.82;;
76892;SDS011;65854;51.466;7.260;2023-02-15T15:24:58;21.20;;;7.05;;
76892;SDS011;65854;51.466;7.260;2023-02-15T15:47:00;19.48;;;7.00;;
76892;SDS011;65854;51.466;7.260;2023-02-15T15:49:39;17.90;;;7.10;;
76892;SDS011;65854;51.466;7.260;2023-02-15T15:52:15;22.27;;;7.72;;
76892;SDS011;65854;51.466;7.260;2023-02-15T15:54:44;26.30;;;6.97;;
76892;SDS011;65854;51.466;7.260;2023-02-15T15:57:29;19.20;;;6.57;;
76892;SDS011;65854;51.466;7.260;2023-02-15T15:59:58;22.02;;;7.22;;
76892;SDS011;65854;51.466;7.260;2023-02-15T16:02:24;17.65;;;6.53;;
76892;SDS011;65854;51.466;7.260;2023-02-15T16:04:50;23.35;;;6.93;;
76892;SDS011;65854;51.466;7.260;2023-02-15T16:12:25;18.00;;;6.93;;
76892;SDS011;65854;51.466;7.260;2023-02-15T16:14:56;19.80;;;6.85;;
76892;SDS011;65854;51.466;7.260;2023-02-15T16:17:24;22.35;;;7.65;;
76892;SDS011;65854;51.466;7.260;2023-02-15T16:19:53;22.42;;;7.13;;
76892;SDS011;65854;51.466;7.260;2023-02-15T16:22:26;19.58;;;6.78;;
76892;SDS011;65854;51.466;7.260;2023-02-15T16:27:33;23.00;;;6.85;;
76892;SDS011;65854;51.466;7.260;2023-02-15T16:30:22;18.63;;;6.93;;
76892;SDS011;65854;51.466;7.260;2023-02-15T16:32:48;18.55;;;6.60;;
76892;SDS011;65854;51.466;7.260;2023-02-15T16:35:18;22.25;;;6.88;;
76892;SDS011;65854;51.466;7.260;2023-02-15T16:37:45;17.38;;;6.70;;
76892;SDS011;65854;51.466;7.260;2023-02-15T16:42:49;19.58;;;6.68;;
76892;SDS011;65854;51.466;7.260;2023-02-15T16:45:16;18.52;;;7.18;;
76892;SDS011;65854;51.466;7.260;2023-02-15T16:47:46;22.13;;;7.47;;
76892;SDS011;65854;51.466;7.260;2023-02-15T16:50:33;17.55;;;7.32;;
76892;SDS011;65854;51.466;7.260;2023-02-15T16:53:01;20.33;;;7.43;;
76892;SDS011;65854;51.466;7.260;2023-02-15T16:55:40;20.88;;;7.05;;
76892;SDS011;65854;51.466;7.260;2023-02-15T16:58:11;19.15;;;7.57;;
76892;SDS011;65854;51.466;7.260;2023-02-15T17:00:41;17.67;;;6.85;;
76892;SDS011;65854;51.466;7.260;2023-02-15T17:16:33;18.70;;;7.50;;
76892;SDS011;65854;51.466;7.260;2023-02-15T17:19:13;17.45;;;7.45;;
76892;SDS011;65854;51.466;7.260;2023-02-15T17:21:42;19.90;;;7.78;;
76892;SDS011;65854;51.466;7.260;2023-02-15T17:24:17;18.63;;;7.20;;
76892;SDS011;65854;51.466;7.260;2023-02-15T17:27:11;19.48;;;7.70;;
76892;SDS011;65854;51.466;7.260;2023-02-15T17:30:04;20.63;;;7.50;;
76892;SDS011;65854;51.466;7.260;2023-02-15T17:32:51;21.75;;;7.78;;
76892;SDS011;65854;51.466;7.260;2023-02-15T17:35:20;18.63;;;7.00;;
76892;SDS011;65854;51.466;7.260;2023-02-15T17:38:00;17.67;;;7.25;;
76892;SDS011;65854;51.466;7.260;2023-02-15T17:40:36;17.58;;;7.65;;
76892;SDS011;65854;51.466;7.260;2023-02-15T17:43:02;19.30;;;7.75;;
76892;SDS011;65854;51.466;7.260;2023-02-15T17:45:32;20.45;;;7.70;;
76892;SDS011;65854;51.466;7.260;2023-02-15T17:48:01;21.45;;;8.10;;
76892;SDS011;65854;51.466;7.260;2023-02-15T17:50:29;20.60;;;8.00;;
76892;SDS011;65854;51.466;7.260;2023-02-15T17:52:55;21.90;;;8.38;;
76892;SDS011;65854;51.466;7.260;2023-02-15T17:55:23;19.90;;;7.60;;
76892;SDS011;65854;51.466;7.260;2023-02-15T17:58:15;18.60;;;7.60;;
76892;SDS011;65854;51.466;7.260;2023-02-15T18:00:47;21.48;;;8.07;;
76892;SDS011;65854;51.466;7.260;2023-02-15T18:03:37;25.10;;;8.50;;
76892;SDS011;65854;51.466;7.260;2023-02-15T18:06:25;21.70;;;8.07;;
76892;SDS011;65854;51.466;7.260;2023-02-15T18:09:10;21.38;;;8.13;;
76892;SDS011;65854;51.466;7.260;2023-02-15T18:14:55;22.25;;;8.10;;
76892;SDS011;65854;51.466;7.260;2023-02-15T18:17:23;19.23;;;8.00;;
76892;SDS011;65854;51.466;7.260;2023-02-15T18:19:56;24.92;;;8.27;;
76892;SDS011;65854;51.466;7.260;2023-02-15T18:22:22;21.23;;;8.82;;
76892;SDS011;65854;51.466;7.260;2023-02-15T18:24:48;37.43;;;9.33;;
76892;SDS011;65854;51.466;7.260;2023-02-15T18:27:14;20.70;;;8.23;;
76892;SDS011;65854;51.466;7.260;2023-02-15T18:29:41;18.27;;;8.10;;
76892;SDS011;65854;51.466;7.260;2023-02-15T18:32:08;20.45;;;8.27;;